Time;durP1;ratioP1;P1;durP2;ratioP2;P2;SDS_P1;SDS_P2;PMS_P1;PMS_P2;Temp;Humidity;BMP_temperature;BMP_pressure;BME280_temperature;BME280_humidity;BME280_pressure;Samples;Min_cycle;Max_cycle;Signal;HPM_P1;HPM_P2
2022/02/07 00:00:40;;;;;;;;;;;;;;;1.07;80.72;98236.88;1676389;85;20207;-71
2022/02/07 00:03:10;;;;;;;;;;;;;;;1.07;80.67;98239.58;1672870;85;21124;-72
2022/02/07 00:05:32;;;;;;;;;;;;;;;1.06;80.56;98244.17;1671156;85;20084;-70
2022/02/07 00:07:59;;;;;;;;;;;;;;;1.05;80.61;98242.56;1670636;86;20136;-72
2022/02/07 00:10:25;;;;;;;;;;;;;;;1.05;80.68;98246.61;1672044;85;20180;-70
2022/02/07 00:12:53;;;;;;;;;;;;;;;1.04;80.57;98242.30;1671643;86;20132;-70
2022/02/07 00:15:19;;;;;;;;;;;;;;;1.03;80.59;98246.09;1672406;86;21007;-69
2022/02/07 00:17:46;;;;;;;;;;;;;;;1.02;80.59;98238.27;1671675;86;20135;-72
2022/02/07 00:20:17;;;;;;;;;;;;;;;1.01;80.55;98236.66;1671895;86;20180;-72
2022/02/07 00:22:43;;;;;;;;;;;;;;;0.99;80.64;98226.13;1652460;86;20172;-71
2022/02/07 00:25:11;;;;;;;;;;;;;;;0.97;80.73;98226.42;1671640;86;20172;-71
2022/02/07 00:27:38;;;;;;;;;;;;;;;0.95;80.78;98218.34;1671611;86;21951;-73
2022/02/07 00:30:06;;;;;;;;;;;;;;;0.95;80.86;98221.04;1671834;85;20694;-71
2022/02/07 00:32:34;;;;;;;;;;;;;;;0.95;81.02;98216.98;1658927;86;20440;-70
2022/02/07 00:35:00;;;;;;;;;;;;;;;0.95;80.97;98208.88;1643210;87;20190;-71
2022/02/07 00:37:30;;;;;;;;;;;;;;;0.95;81.02;98210.23;1643133;86;20179;-71
2022/02/07 00:40:15;;;;;;;;;;;;;;;0.94;81.15;98195.91;1643196;87;21100;-70
2022/02/07 00:42:32;;;;;;;;;;;;;;;0.93;81.21;98192.14;1646040;85;20091;-70
2022/02/07 00:45:00;;;;;;;;;;;;;;;0.94;81.26;98187.00;1643599;85;20106;-70
2022/02/07 00:47:24;;;;;;;;;;;;;;;0.94;81.28;98185.65;1624696;87;20677;-70
2022/02/07 00:49:51;;;;;;;;;;;;;;;0.95;81.26;98179.16;1643271;87;20177;-69
2022/02/07 00:52:18;;;;;;;;;;;;;;;0.95;81.36;98183.20;1643201;87;21150;-70
2022/02/07 00:54:44;;;;;;;;;;;;;;;0.96;81.40;98171.31;1643016;86;20122;-69
2022/02/07 00:57:12;;;;;;;;;;;;;;;0.95;81.40;98171.86;1643134;87;20161;-70
2022/02/07 00:59:39;;;;;;;;;;;;;;;0.96;81.31;98164.55;1643419;87;20234;-71
2022/02/07 01:02:05;;;;;;;;;;;;;;;0.97;81.31;98165.62;1643378;86;20174;-69
2022/02/07 01:04:33;;;;;;;;;;;;;;;0.98;81.30;98164.53;1651932;86;21164;-69
2022/02/07 01:07:06;;;;;;;;;;;;;;;0.99;81.31;98147.22;1651652;86;20130;-70
2022/02/07 01:09:43;;;;;;;;;;;;;;;0.99;81.29;98130.20;1651657;85;20206;-70
2022/02/07 01:14:58;;;;;;;;;;;;;;;1.00;81.32;98118.30;1649028;86;20130;-71
2022/02/07 01:57:57;;;;;;;;;;;;;;;1.19;79.02;98030.47;1687687;85;21177;-70
2022/02/07 02:00:25;;;;;;;;;;;;;;;1.19;78.92;98020.46;1687834;85;20153;-70
2022/02/07 02:02:53;;;;;;;;;;;;;;;1.21;78.75;98025.58;1686704;85;20214;-71
2022/02/07 02:05:22;;;;;;;;;;;;;;;1.21;78.71;98025.03;1683523;85;20166;-72
2022/02/07 02:07:49;;;;;;;;;;;;;;;1.21;78.83;98016.92;1683714;85;20205;-71
2022/02/07 02:10:16;;;;;;;;;;;;;;;1.21;78.80;98028.28;1683648;85;21112;-71
2022/02/07 02:12:54;;;;;;;;;;;;;;;1.19;79.09;98020.46;1674590;85;20117;-70
2022/02/07 02:37:14;;;;;;;;;;;;;;;1.13;78.69;98016.25;1674820;85;21013;-70
2022/02/07 02:47:58;;;;;;;;;;;;;;;1.13;78.99;97979.77;1674659;85;20175;-70
2022/02/07 02:50:32;;;;;;;;;;;;;;;1.14;78.98;97978.67;1673746;85;21138;-71
2022/02/07 02:52:57;;;;;;;;;;;;;;;1.16;78.98;97978.34;1674331;85;20182;-68
2022/02/07 02:55:24;;;;;;;;;;;;;;;1.17;79.10;97972.64;1674300;85;20150;-79
2022/02/07 02:57:50;;;;;;;;;;;;;;;1.19;79.14;97974.52;1674483;85;20181;-68
2022/02/07 03:00:18;;;;;;;;;;;;;;;1.22;79.17;97971.77;1670917;85;20176;-70
2022/02/07 03:02:46;;;;;;;;;;;;;;;1.23;78.84;97972.83;1670647;85;20143;-70
2022/02/07 03:05:15;;;;;;;;;;;;;;;1.24;78.42;97969.03;1674301;85;20143;-69
2022/02/07 03:07:41;;;;;;;;;;;;;;;1.24;78.25;97963.63;1674326;85;20179;-69
2022/02/07 03:10:08;;;;;;;;;;;;;;;1.24;78.25;97962.82;1676998;85;20411;-68
2022/02/07 03:12:47;;;;;;;;;;;;;;;1.23;78.01;97957.16;1678544;84;20179;-68
2022/02/07 03:17:52;;;;;;;;;;;;;;;1.19;77.81;97961.54;1678682;85;20118;-69
2022/02/07 03:20:18;;;;;;;;;;;;;;;1.17;77.86;97956.43;1678411;85;20171;-70
2022/02/07 03:22:45;;;;;;;;;;;;;;;1.14;77.95;97950.84;1678357;85;20204;-69
2022/02/07 03:25:11;;;;;;;;;;;;;;;1.13;77.95;97953.28;1678556;85;20136;-69
2022/02/07 03:27:40;;;;;;;;;;;;;;;1.10;78.05;97943.86;1678022;85;21178;-70
2022/02/07 03:30:10;;;;;;;;;;;;;;;1.07;78.13;97943.09;1675466;85;20175;-70
2022/02/07 03:32:41;;;;;;;;;;;;;;;1.04;78.12;97943.67;1676209;85;20188;-70
2022/02/07 03:35:09;;;;;;;;;;;;;;;1.03;78.28;97946.13;1676404;85;20726;-69
2022/02/07 03:37:36;;;;;;;;;;;;;;;1.01;78.32;97938.86;1676455;85;20148;-68
2022/02/07 03:40:03;;;;;;;;;;;;;;;0.98;78.38;97933.48;1678657;85;20693;-69
2022/02/07 03:42:31;;;;;;;;;;;;;;;0.98;78.50;97934.03;1678645;84;20131;-69
2022/02/07 03:45:02;;;;;;;;;;;;;;;0.96;78.65;97930.83;1677957;85;21010;-69
2022/02/07 03:47:30;;;;;;;;;;;;;;;0.95;78.73;97933.27;1628483;85;20628;-69
2022/02/07 03:49:58;;;;;;;;;;;;;;;0.95;78.90;97930.57;1654448;85;20227;-69
2022/02/07 03:52:26;;;;;;;;;;;;;;;0.96;79.37;97923.52;1678454;85;21155;-70
2022/02/07 03:54:54;;;;;;;;;;;;;;;0.94;79.80;97918.95;1678863;85;20175;-70
2022/02/07 03:57:21;;;;;;;;;;;;;;;0.93;80.91;97920.60;1678316;85;20179;-71
2022/02/07 03:59:47;;;;;;;;;;;;;;;0.88;82.51;97910.67;1659304;85;20148;-70
2022/02/07 04:02:14;;;;;;;;;;;;;;;0.83;83.82;97915.34;1678602;85;20187;-72
2022/02/07 04:04:45;;;;;;;;;;;;;;;0.78;84.62;97914.06;1676124;85;21167;-69
2022/02/07 04:07:12;;;;;;;;;;;;;;;0.71;86.50;97909.56;1674226;85;20178;-69
2022/02/07 04:09:45;;;;;;;;;;;;;;;0.64;86.93;97909.38;1677159;85;20187;-70
2022/02/07 04:12:11;;;;;;;;;;;;;;;0.58;88.58;97906.48;1676543;85;20240;-70
2022/02/07 04:14:39;;;;;;;;;;;;;;;0.50;90.21;97899.06;1676370;85;20175;-71
2022/02/07 04:17:19;;;;;;;;;;;;;;;0.43;90.93;97907.27;1676884;85;21273;-69
2022/02/07 04:19:42;;;;;;;;;;;;;;;0.35;92.33;97903.30;1676727;85;20157;-69
2022/02/07 04:22:09;;;;;;;;;;;;;;;0.31;93.30;97898.23;1676862;85;20152;-70
2022/02/07 04:24:43;;;;;;;;;;;;;;;0.26;94.03;97891.00;1648024;85;20223;-69
2022/02/07 04:27:11;;;;;;;;;;;;;;;0.24;95.00;97878.88;1676766;85;20195;-69
2022/02/07 04:29:39;;;;;;;;;;;;;;;0.22;95.36;97867.03;1676674;85;21148;-69
2022/02/07 04:32:07;;;;;;;;;;;;;;;0.24;95.75;97861.34;1673161;85;20453;-70
2022/02/07 04:34:34;;;;;;;;;;;;;;;0.26;95.94;97849.70;1672494;85;20168;-70
2022/02/07 04:37:01;;;;;;;;;;;;;;;0.26;96.19;97838.91;1671151;85;20200;-69
2022/02/07 04:39:28;;;;;;;;;;;;;;;0.26;96.43;97841.06;1673209;85;20211;-70
2022/02/07 04:41:57;;;;;;;;;;;;;;;0.27;96.96;97844.56;1676342;85;21271;-69
2022/02/07 04:44:35;;;;;;;;;;;;;;;0.28;97.25;97840.78;1671276;85;20159;-69
2022/02/07 04:52:24;;;;;;;;;;;;;;;0.32;97.84;97845.30;1653551;85;20148;-69
2022/02/07 04:57:18;;;;;;;;;;;;;;;0.35;98.04;97834.47;1649586;85;20178;-72
2022/02/07 05:04:54;;;;;;;;;;;;;;;0.38;98.26;97843.34;1656228;85;20172;-69
2022/02/07 05:15:33;;;;;;;;;;;;;;;0.42;97.94;97853.81;1659266;85;20174;-71
2022/02/07 05:18:00;;;;;;;;;;;;;;;0.43;97.81;97848.67;1667413;85;20179;-73
2022/02/07 05:20:28;;;;;;;;;;;;;;;0.46;97.71;97858.09;1654996;85;21187;-72
2022/02/07 05:23:12;;;;;;;;;;;;;;;0.46;97.58;97859.44;1675222;84;20249;-69
2022/02/07 05:25:56;;;;;;;;;;;;;;;0.48;97.41;97860.75;1674816;85;20128;-72
2022/02/07 05:28:36;;;;;;;;;;;;;;;0.52;97.33;97876.63;1677640;84;20196;-71
2022/02/07 05:31:13;;;;;;;;;;;;;;;0.57;97.18;97894.66;1646564;87;20175;-68
2022/02/07 05:33:41;;;;;;;;;;;;;;;0.58;97.08;97875.44;1619263;85;21084;-69
2022/02/07 05:36:26;;;;;;;;;;;;;;;0.60;96.88;97883.24;1628323;87;20166;-70
2022/02/07 05:39:01;;;;;;;;;;;;;;;0.62;96.69;97875.11;1609169;88;20202;-68
2022/02/07 05:41:45;;;;;;;;;;;;;;;0.65;96.46;97870.47;1637308;87;20195;-69
2022/02/07 05:44:14;;;;;;;;;;;;;;;0.69;96.17;97858.54;1641627;86;20159;-67
2022/02/07 05:47:00;;;;;;;;;;;;;;;0.70;96.02;97845.30;1601978;89;20438;-68
2022/02/07 05:49:46;;;;;;;;;;;;;;;0.72;95.92;97853.91;1568531;90;20306;-69
2022/02/07 05:52:17;;;;;;;;;;;;;;;0.75;95.21;97837.66;1576818;90;20126;-69
2022/02/07 05:54:51;;;;;;;;;;;;;;;0.78;94.89;97824.92;1600763;88;20216;-77
2022/02/07 05:57:28;;;;;;;;;;;;;;;0.82;94.28;97824.59;1631831;88;20211;-73
2022/02/07 05:59:59;;;;;;;;;;;;;;;0.82;93.81;97816.48;1631389;87;22592;-68
2022/02/07 06:02:44;;;;;;;;;;;;;;;0.83;93.55;97817.55;1631906;88;20179;-75
2022/02/07 06:05:18;;;;;;;;;;;;;;;0.84;93.43;97825.09;1610589;88;20209;-70
2022/02/07 06:07:45;;;;;;;;;;;;;;;0.84;93.21;97819.15;1628000;88;20179;-70
2022/02/07 06:10:12;;;;;;;;;;;;;;;0.84;93.29;97820.50;1630002;88;20180;-70
2022/02/07 06:12:40;;;;;;;;;;;;;;;0.85;93.09;97834.81;1630019;88;21058;-69
2022/02/07 06:15:08;;;;;;;;;;;;;;;0.87;93.03;97841.52;1630051;88;20128;-71
2022/02/07 06:17:37;;;;;;;;;;;;;;;0.91;92.72;97848.49;1630024;88;20187;-71
2022/02/07 06:20:04;;;;;;;;;;;;;;;0.95;92.53;97850.31;1629865;88;21384;-71
2022/02/07 06:22:32;;;;;;;;;;;;;;;1.00;92.31;97853.48;1629872;88;20187;-70
2022/02/07 06:25:02;;;;;;;;;;;;;;;1.05;91.92;97853.95;1629973;88;21120;-69
2022/02/07 06:27:29;;;;;;;;;;;;;;;1.11;90.76;97851.42;1629843;88;20119;-77
2022/02/07 06:29:57;;;;;;;;;;;;;;;1.15;90.39;97853.80;1630176;88;20164;-77
2022/02/07 06:32:26;;;;;;;;;;;;;;;1.17;90.06;97855.07;1630358;86;20521;-78
2022/02/07 06:34:56;;;;;;;;;;;;;;;1.18;89.59;97849.92;1621118;87;20176;-78
2022/02/07 06:37:24;;;;;;;;;;;;;;;1.20;89.70;97853.67;1630061;88;20135;-78
2022/02/07 06:39:50;;;;;;;;;;;;;;;1.20;89.48;97848.27;1630056;88;20143;-78
2022/02/07 06:42:19;;;;;;;;;;;;;;;1.20;89.73;97847.72;1630037;88;20188;-79
2022/02/07 06:44:45;;;;;;;;;;;;;;;1.18;89.13;97843.16;1611413;88;20370;-77
2022/02/07 06:47:13;;;;;;;;;;;;;;;1.18;89.57;97829.64;1610196;88;20145;-78
2022/02/07 06:49:42;;;;;;;;;;;;;;;1.18;89.58;97819.38;1629872;88;22014;-77
2022/02/07 06:52:08;;;;;;;;;;;;;;;1.20;89.52;97815.84;1629760;88;20137;-77
2022/02/07 06:54:35;;;;;;;;;;;;;;;1.24;89.30;97816.84;1630138;88;20184;-75
2022/02/07 06:57:02;;;;;;;;;;;;;;;1.27;88.96;97814.35;1629930;88;20322;-77
2022/02/07 06:59:33;;;;;;;;;;;;;;;1.33;88.84;97818.57;1629892;88;20246;-75
2022/02/07 07:02:00;;;;;;;;;;;;;;;1.39;88.33;97813.87;1628905;88;20139;-74
2022/02/07 07:04:29;;;;;;;;;;;;;;;1.45;87.86;97816.74;1615929;88;20196;-71
2022/02/07 07:06:56;;;;;;;;;;;;;;;1.50;87.56;97811.24;1624449;88;20212;-71
2022/02/07 07:09:23;;;;;;;;;;;;;;;1.57;86.92;97809.50;1631042;88;20181;-74
2022/02/07 07:11:49;;;;;;;;;;;;;;;1.61;86.72;97815.91;1630974;88;20152;-76
2022/02/07 07:14:39;;;;;;;;;;;;;;;1.65;85.32;97812.86;1647159;86;21182;-74
2022/02/07 07:17:00;;;;;;;;;;;;;;;1.69;85.39;97818.48;1654760;86;20240;-77
2022/02/07 07:19:29;;;;;;;;;;;;;;;1.72;84.77;97818.67;1655474;86;20186;-76
2022/02/07 07:21:55;;;;;;;;;;;;;;;1.75;84.82;97826.16;1656120;86;20165;-80
2022/02/07 07:24:22;;;;;;;;;;;;;;;1.78;84.60;97821.51;1656194;86;20189;-72
2022/02/07 07:26:48;;;;;;;;;;;;;;;1.79;84.47;97825.02;1656301;86;22123;-70
2022/02/07 07:29:21;;;;;;;;;;;;;;;1.82;83.50;97821.70;1656456;86;20177;-70
2022/02/07 07:31:51;;;;;;;;;;;;;;;1.82;83.05;97818.45;1653046;86;20245;-70
2022/02/07 07:34:17;;;;;;;;;;;;;;;1.82;83.45;97813.04;1628611;86;20945;-69
2022/02/07 07:36:46;;;;;;;;;;;;;;;1.84;83.42;97817.60;1627539;87;37737;-71
2022/02/07 07:39:13;;;;;;;;;;;;;;;1.86;82.56;97809.19;1596603;89;20572;-69
2022/02/07 07:41:41;;;;;;;;;;;;;;;1.87;82.62;97809.44;1621860;88;20452;-69
2022/02/07 07:44:10;;;;;;;;;;;;;;;1.85;82.56;97798.91;1636107;87;20138;-78
2022/02/07 07:46:38;;;;;;;;;;;;;;;1.86;82.40;97791.05;1629975;87;20181;-71
2022/02/07 07:49:16;;;;;;;;;;;;;;;1.84;82.13;97800.56;1673359;85;20176;-69
2022/02/07 07:51:52;;;;;;;;;;;;;;;1.80;82.25;97796.30;1631383;86;21986;-69
2022/02/07 07:54:45;;;;;;;;;;;;;;;1.78;82.10;97796.36;1653095;85;20179;-71
2022/02/07 08:02:36;;;;;;;;;;;;;;;1.68;82.80;97796.58;1666468;85;20645;-69
2022/02/07 08:05:13;;;;;;;;;;;;;;;1.61;82.95;97789.67;1668090;85;22495;-68
2022/02/07 08:07:37;;;;;;;;;;;;;;;1.60;82.95;97789.97;1674350;85;20175;-75
2022/02/07 08:10:18;;;;;;;;;;;;;;;1.56;83.28;97791.12;1674194;85;20089;-78
2022/02/07 08:12:39;;;;;;;;;;;;;;;1.55;83.48;97787.36;1675194;85;20475;-73
2022/02/07 08:14:59;;;;;;;;;;;;;;;1.52;83.19;97782.55;1673882;85;20181;-73
2022/02/07 08:17:26;;;;;;;;;;;;;;;1.51;83.33;97798.52;1675005;85;21169;-71
2022/02/07 08:19:53;;;;;;;;;;;;;;;1.52;83.49;97789.31;1675053;85;20498;-70
2022/02/07 08:22:20;;;;;;;;;;;;;;;1.54;83.08;97787.91;1674341;85;20104;-67
2022/02/07 08:24:46;;;;;;;;;;;;;;;1.54;82.74;97779.80;1673339;85;20162;-71
2022/02/07 08:27:12;;;;;;;;;;;;;;;1.58;82.34;97784.06;1675195;85;20179;-71
2022/02/07 08:29:39;;;;;;;;;;;;;;;1.61;82.55;97772.64;1675308;85;21149;-69
2022/02/07 08:32:06;;;;;;;;;;;;;;;1.64;82.61;97770.69;1664529;85;20128;-73
2022/02/07 08:34:34;;;;;;;;;;;;;;;1.67;82.64;97767.93;1648300;87;20098;-72
2022/02/07 08:37:02;;;;;;;;;;;;;;;1.70;82.41;97760.02;1623352;87;20472;-70
2022/02/07 08:39:29;;;;;;;;;;;;;;;1.74;82.33;97758.83;1650543;85;20296;-69
2022/02/07 08:41:55;;;;;;;;;;;;;;;1.76;81.95;97747.95;1681088;85;21118;-69
2022/02/07 08:44:22;;;;;;;;;;;;;;;1.78;82.07;97753.07;1681038;85;20175;-70
2022/02/07 08:46:48;;;;;;;;;;;;;;;1.81;81.97;97753.82;1681098;85;20469;-71
2022/02/07 08:49:15;;;;;;;;;;;;;;;1.81;82.04;97757.88;1680950;85;20494;-75
2022/02/07 08:51:46;;;;;;;;;;;;;;;1.83;82.03;97757.83;1681275;85;20143;-68
2022/02/07 08:54:17;;;;;;;;;;;;;;;1.84;81.11;97771.60;1680663;85;21189;-80
2022/02/07 08:56:49;;;;;;;;;;;;;;;1.83;80.90;97771.35;1661363;85;20176;-70
2022/02/07 08:59:11;;;;;;;;;;;;;;;1.84;80.45;97764.84;1679573;85;20108;-70
2022/02/07 09:01:55;;;;;;;;;;;;;;;1.86;80.26;97770.75;1681110;85;20466;-70
2022/02/07 09:07:05;;;;;;;;;;;;;;;1.98;79.77;97776.45;1638480;85;21035;-76
2022/02/07 09:09:26;;;;;;;;;;;;;;;2.06;79.48;97772.78;1623190;86;20449;-76
2022/02/07 09:11:52;;;;;;;;;;;;;;;2.12;78.87;97773.73;1647708;85;20512;-70
2022/02/07 09:14:22;;;;;;;;;;;;;;;2.15;78.50;97775.83;1613775;87;20186;-70
2022/02/07 09:16:51;;;;;;;;;;;;;;;2.21;78.78;97777.88;1622256;86;20102;-71
2022/02/07 09:19:20;;;;;;;;;;;;;;;2.26;78.35;97781.27;1650697;87;21190;-68
2022/02/07 09:21:47;;;;;;;;;;;;;;;2.30;78.01;97782.82;1646988;86;20173;-71
2022/02/07 09:24:14;;;;;;;;;;;;;;;2.32;77.86;97787.35;1646569;86;20202;-69
2022/02/07 09:26:41;;;;;;;;;;;;;;;2.33;77.69;97789.75;1642414;86;20189;-73
2022/02/07 09:29:07;;;;;;;;;;;;;;;2.32;77.16;97787.35;1635503;86;20158;-74
2022/02/07 09:31:34;;;;;;;;;;;;;;;2.27;77.05;97782.08;1625564;88;21185;-70
2022/02/07 09:34:00;;;;;;;;;;;;;;;2.18;77.28;97783.34;1625657;86;20194;-71
2022/02/07 09:36:26;;;;;;;;;;;;;;;2.09;77.69;97781.10;1625674;87;20469;-70
2022/02/07 09:38:53;;;;;;;;;;;;;;;2.04;78.18;97784.47;1646566;86;20212;-69
2022/02/07 09:41:21;;;;;;;;;;;;;;;2.03;78.59;97782.86;1620027;88;20187;-74
2022/02/07 09:43:50;;;;;;;;;;;;;;;2.02;78.81;97790.19;1618967;88;21159;-74
2022/02/07 09:46:22;;;;;;;;;;;;;;;2.04;78.62;97789.88;1629207;86;20142;-67
2022/02/07 09:48:46;;;;;;;;;;;;;;;2.06;78.34;97795.80;1645939;86;20169;-68
2022/02/07 09:51:12;;;;;;;;;;;;;;;2.08;78.23;97794.94;1623670;87;20210;-68
2022/02/07 09:53:40;;;;;;;;;;;;;;;2.10;78.08;97795.44;1628814;87;20150;-70
2022/02/07 09:56:07;;;;;;;;;;;;;;;2.11;78.02;97805.16;1658904;85;21002;-70
2022/02/07 09:58:37;;;;;;;;;;;;;;;2.13;78.14;97802.95;1627843;86;20142;-70
2022/02/07 10:01:04;;;;;;;;;;;;;;;2.14;77.69;97799.95;1629527;88;20151;-70
2022/02/07 10:04:08;;;;;;;;;;;;;;;2.12;77.39;97810.27;1628928;87;20203;-67
2022/02/07 10:06:28;;;;;;;;;;;;;;;2.09;77.47;97806.02;1624217;86;20177;-69
2022/02/07 10:14:09;;;;;;;;;;;;;;;2.12;77.35;97812.17;1663264;86;20465;-71
2022/02/07 10:16:47;;;;;;;;;;;;;;;2.14;77.47;97809.97;1649001;86;20180;-69
2022/02/07 10:19:20;;;;;;;;;;;;;;;2.17;78.11;97814.78;1655245;86;20450;-69
2022/02/07 10:46:01;;;;;;;;;;;;;;;2.33;83.49;97806.55;1658382;86;20148;-70
2022/02/07 10:48:37;;;;;;;;;;;;;;;2.32;84.18;97798.18;1657881;85;21165;-75
2022/02/07 10:51:26;;;;;;;;;;;;;;;2.29;84.66;97785.28;1631776;84;20127;-74
2022/02/07 10:53:57;;;;;;;;;;;;;;;2.26;84.85;97775.06;1656972;84;20155;-74
2022/02/07 10:56:34;;;;;;;;;;;;;;;2.24;85.38;97766.44;1657552;84;20211;-73
2022/02/07 10:59:02;;;;;;;;;;;;;;;2.21;85.51;97765.69;1654351;84;20139;-73
2022/02/07 11:04:28;;;;;;;;;;;;;;;2.13;85.78;97741.50;1655507;86;20133;-71
2022/02/07 11:06:57;;;;;;;;;;;;;;;2.14;85.91;97739.59;1666144;84;20144;-75
2022/02/07 11:09:34;;;;;;;;;;;;;;;2.12;85.84;97728.27;1672005;85;20192;-67
2022/02/07 11:12:17;;;;;;;;;;;;;;;2.09;85.96;97718.05;1672117;85;20215;-66
2022/02/07 11:14:51;;;;;;;;;;;;;;;2.08;86.20;97719.16;1667149;85;21177;-70
2022/02/07 11:20:21;;;;;;;;;;;;;;;2.19;86.48;97692.09;1652650;84;20435;-69
2022/02/07 11:26:14;;;;;;;;;;;;;;;2.36;86.12;97684.64;1647958;85;20176;-69
2022/02/07 11:28:44;;;;;;;;;;;;;;;2.43;85.86;97677.69;1672660;85;21197;-68
2022/02/07 11:31:15;;;;;;;;;;;;;;;2.57;85.90;97683.84;1651625;85;20592;-68
2022/02/07 11:33:54;;;;;;;;;;;;;;;2.71;85.30;97674.30;1645885;85;20213;-68
2022/02/07 11:36:34;;;;;;;;;;;;;;;2.86;84.62;97679.33;1674320;85;20227;-68
2022/02/07 11:39:12;;;;;;;;;;;;;;;2.97;83.53;97673.85;1656601;85;20144;-68
2022/02/07 11:42:03;;;;;;;;;;;;;;;3.05;82.87;97685.85;1676067;85;20690;-68
2022/02/07 11:44:49;;;;;;;;;;;;;;;3.12;82.61;97692.98;1669731;84;20102;-69
2022/02/07 11:47:37;;;;;;;;;;;;;;;3.39;83.07;97703.39;1650531;85;20150;-69
2022/02/07 11:50:07;;;;;;;;;;;;;;;3.90;81.99;97713.02;1629780;87;20139;-68
2022/02/07 11:52:44;;;;;;;;;;;;;;;4.62;79.33;97718.39;1639094;85;20195;-71
2022/02/07 11:55:16;;;;;;;;;;;;;;;5.20;77.61;97727.27;1661763;85;21194;-69
2022/02/07 11:57:55;;;;;;;;;;;;;;;5.90;74.63;97741.41;1653728;85;20164;-69
2022/02/07 12:00:19;;;;;;;;;;;;;;;6.51;73.34;97743.95;1663052;85;20106;-69
2022/02/07 12:03:06;;;;;;;;;;;;;;;7.13;71.10;97753.98;1656194;85;20180;-69
2022/02/07 12:05:23;;;;;;;;;;;;;;;7.56;66.95;97754.85;1650948;85;20499;-68
2022/02/07 12:07:58;;;;;;;;;;;;;;;7.68;65.83;97765.56;1673840;84;21162;-67
2022/02/07 12:10:43;;;;;;;;;;;;;;;7.80;65.78;97765.02;1674148;85;20172;-69
2022/02/07 12:13:01;;;;;;;;;;;;;;;8.07;64.65;97756.71;1677249;84;20140;-68
2022/02/07 12:18:14;;;;;;;;;;;;;;;8.22;62.57;97757.92;1674968;85;20148;-68
2022/02/07 12:20:43;;;;;;;;;;;;;;;8.32;62.68;97756.66;1674244;84;21355;-72
2022/02/07 12:23:14;;;;;;;;;;;;;;;8.59;61.65;97751.86;1679158;85;20251;-64
2022/02/07 12:25:46;;;;;;;;;;;;;;;8.84;60.85;97748.45;1681981;85;20184;-64
2022/02/07 12:28:18;;;;;;;;;;;;;;;9.03;60.60;97741.77;1690881;85;20215;-64
2022/02/07 12:30:59;;;;;;;;;;;;;;;9.34;59.41;97758.02;1689457;84;20211;-65
2022/02/07 12:33:18;;;;;;;;;;;;;;;9.47;58.32;97751.32;1687642;83;21074;-64
2022/02/07 12:35:45;;;;;;;;;;;;;;;9.30;58.03;97740.69;1679524;84;20134;-74
2022/02/07 12:38:21;;;;;;;;;;;;;;;9.27;58.33;97745.72;1664955;85;20274;-74
2022/02/07 12:40:52;;;;;;;;;;;;;;;9.51;57.88;97735.20;1666558;85;20645;-73
2022/02/07 12:43:35;;;;;;;;;;;;;;;9.66;56.99;97736.36;1664761;85;20255;-74
2022/02/07 12:45:58;;;;;;;;;;;;;;;9.62;56.18;97730.57;1658600;85;21260;-73
2022/02/07 12:48:38;;;;;;;;;;;;;;;9.45;56.37;97744.83;1662996;85;20503;-73
2022/02/07 12:51:06;;;;;;;;;;;;;;;9.20;56.78;97742.03;1679173;85;20140;-72
2022/02/07 12:53:32;;;;;;;;;;;;;;;9.02;57.23;97747.02;1680930;85;21011;-77
2022/02/07 12:56:01;;;;;;;;;;;;;;;9.02;57.63;97755.22;1681671;84;20144;-70
2022/02/07 12:58:36;;;;;;;;;;;;;;;9.17;57.59;97760.52;1681278;85;21110;-69
2022/02/07 13:01:24;;;;;;;;;;;;;;;9.23;56.69;97761.28;1679817;85;20087;-66
2022/02/07 13:03:52;;;;;;;;;;;;;;;9.29;56.76;97761.80;1635116;85;20140;-68
2022/02/07 13:06:22;;;;;;;;;;;;;;;9.37;56.29;97754.00;1675565;85;20494;-66
2022/02/07 13:08:51;;;;;;;;;;;;;;;9.12;56.29;97757.46;1674240;84;20490;-69
2022/02/07 13:11:30;;;;;;;;;;;;;;;8.69;57.10;97771.06;1651327;85;20128;-69
2022/02/07 13:13:57;;;;;;;;;;;;;;;8.41;57.99;97771.83;1676523;85;20180;-67
2022/02/07 13:16:26;;;;;;;;;;;;;;;8.49;58.66;97765.44;1676895;85;20140;-69
2022/02/07 13:18:58;;;;;;;;;;;;;;;8.75;58.01;97774.58;1677307;85;21148;-67
2022/02/07 13:21:26;;;;;;;;;;;;;;;8.70;57.56;97771.29;1676901;85;20100;-67
2022/02/07 13:23:56;;;;;;;;;;;;;;;8.63;58.01;97769.74;1676913;85;22063;-69
2022/02/07 13:26:22;;;;;;;;;;;;;;;8.70;58.31;97763.09;1673666;85;20198;-70
2022/02/07 13:28:55;;;;;;;;;;;;;;;8.95;58.06;97765.97;1656235;85;20199;-68
2022/02/07 13:31:39;;;;;;;;;;;;;;;9.21;57.71;97760.84;1655443;85;20105;-68
2022/02/07 13:34:21;;;;;;;;;;;;;;;9.57;56.87;97759.02;1665741;84;21059;-72
2022/02/07 13:37:07;;;;;;;;;;;;;;;9.99;55.55;97760.64;1658349;85;21170;-71
2022/02/07 13:39:26;;;;;;;;;;;;;;;10.14;54.61;97768.05;1658164;85;20183;-70
2022/02/07 13:42:06;;;;;;;;;;;;;;;10.00;54.22;97764.97;1643565;85;20112;-68
2022/02/07 13:44:42;;;;;;;;;;;;;;;9.75;54.58;97764.38;1646543;86;20171;-70
2022/02/07 13:47:13;;;;;;;;;;;;;;;9.52;54.99;97760.08;1656338;85;20135;-72
2022/02/07 13:50:01;;;;;;;;;;;;;;;9.17;55.50;97758.58;1640353;86;23278;-70
2022/02/07 13:52:31;;;;;;;;;;;;;;;8.73;56.33;97758.28;1658686;86;20114;-74
2022/02/07 13:55:16;;;;;;;;;;;;;;;8.18;57.53;97757.02;1659260;86;20094;-72
2022/02/07 13:58:01;;;;;;;;;;;;;;;7.63;59.04;97757.02;1658831;86;20189;-71
2022/02/07 14:00:51;;;;;;;;;;;;;;;7.18;60.34;97759.23;1659296;86;20206;-73
2022/02/07 14:03:40;;;;;;;;;;;;;;;6.76;61.69;97772.16;1659531;85;21199;-73
2022/02/07 14:06:15;;;;;;;;;;;;;;;6.48;62.85;97774.61;1666238;85;20187;-73
2022/02/07 14:08:51;;;;;;;;;;;;;;;6.27;63.76;97777.91;1671025;86;20184;-74
2022/02/07 14:11:26;;;;;;;;;;;;;;;6.01;64.58;97786.78;1667244;84;21359;-73
2022/02/07 14:13:53;;;;;;;;;;;;;;;5.77;65.51;97781.36;1669634;85;20179;-74
2022/02/07 14:16:23;;;;;;;;;;;;;;;5.52;66.37;97783.05;1664223;85;21113;-75
2022/02/07 14:18:49;;;;;;;;;;;;;;;5.33;67.14;97784.54;1655827;86;20135;-74
2022/02/07 14:21:17;;;;;;;;;;;;;;;5.14;68.05;97781.64;1651081;86;20208;-73
2022/02/07 14:23:46;;;;;;;;;;;;;;;4.93;68.89;97781.51;1657630;86;20184;-73
2022/02/07 14:26:16;;;;;;;;;;;;;;;4.78;69.74;97783.36;1654726;86;20175;-71
2022/02/07 14:28:52;;;;;;;;;;;;;;;4.64;70.38;97789.51;1655307;86;20640;-73
2022/02/07 14:31:23;;;;;;;;;;;;;;;4.53;71.06;97791.77;1656409;86;20127;-73
2022/02/07 14:33:52;;;;;;;;;;;;;;;4.47;71.57;97799.83;1625454;86;21005;-75
2022/02/07 14:36:21;;;;;;;;;;;;;;;4.39;71.95;97795.75;1641201;85;20645;-73
2022/02/07 14:38:49;;;;;;;;;;;;;;;4.34;72.36;97793.98;1639850;86;20164;-75
2022/02/07 14:41:21;;;;;;;;;;;;;;;4.27;72.70;97795.80;1660998;86;21061;-73
2022/02/07 14:44:00;;;;;;;;;;;;;;;4.22;73.60;97794.59;1662385;86;20439;-74
2022/02/07 14:46:42;;;;;;;;;;;;;;;4.16;73.60;97797.78;1642700;86;20233;-74
2022/02/07 14:49:05;;;;;;;;;;;;;;;4.10;73.68;97795.77;1661035;86;20174;-75
2022/02/07 14:51:35;;;;;;;;;;;;;;;4.04;73.96;97798.97;1641809;86;20471;-74
2022/02/07 14:54:12;;;;;;;;;;;;;;;3.92;74.25;97804.45;1663287;86;21166;-75
2022/02/07 14:56:37;;;;;;;;;;;;;;;3.77;74.32;97813.56;1637958;86;20271;-70
2022/02/07 14:59:16;;;;;;;;;;;;;;;3.58;74.69;97815.16;1645930;86;20588;-75
2022/02/07 15:01:37;;;;;;;;;;;;;;;3.41;75.04;97813.73;1657671;85;20184;-71
2022/02/07 15:04:05;;;;;;;;;;;;;;;3.24;75.35;97823.36;1659335;85;20168;-72
2022/02/07 15:06:33;;;;;;;;;;;;;;;3.07;75.81;97826.52;1661535;85;21186;-70
2022/02/07 15:09:02;;;;;;;;;;;;;;;2.92;76.36;97827.68;1639606;85;20124;-70
2022/02/07 15:11:33;;;;;;;;;;;;;;;2.78;76.86;97841.86;1632620;87;20212;-70
2022/02/07 15:14:00;;;;;;;;;;;;;;;2.61;77.31;97855.50;1639413;86;20188;-71
2022/02/07 15:16:31;;;;;;;;;;;;;;;2.46;77.57;97859.09;1662533;84;20208;-71
2022/02/07 15:19:00;;;;;;;;;;;;;;;2.31;77.90;97862.95;1624364;88;21212;-70
2022/02/07 15:21:36;;;;;;;;;;;;;;;2.17;78.36;97864.31;1627368;87;20188;-72
2022/02/07 15:24:08;;;;;;;;;;;;;;;2.04;78.82;97873.23;1634753;85;20478;-71
2022/02/07 15:26:31;;;;;;;;;;;;;;;1.93;79.40;97879.95;1633075;87;20219;-72
2022/02/07 15:28:59;;;;;;;;;;;;;;;1.82;79.91;97880.69;1644572;85;20179;-75
2022/02/07 15:31:31;;;;;;;;;;;;;;;1.73;80.41;97887.91;1631655;87;21172;-69
2022/02/07 15:34:01;;;;;;;;;;;;;;;1.64;80.67;97895.11;1608828;88;20469;-72
2022/02/07 15:36:32;;;;;;;;;;;;;;;1.53;81.10;97890.98;1610266;85;20182;-67
2022/02/07 15:38:58;;;;;;;;;;;;;;;1.41;81.27;97891.99;1625921;86;20135;-72
2022/02/07 15:41:24;;;;;;;;;;;;;;;1.31;81.88;97896.47;1648349;86;20247;-73